Hauptseite
METAR-TAF:

METAR-TAF

Flughäfen :

Flughafen Bordeaux

Bordeaux, Frankreich

Breite: 44-50N, Länge: 000-42W, Höhe: 49 m

Beobachtung

Neuester Wetterbericht von vor 39 Minuten, um 14:30 UTC
Wind 9 kt aus Nord/Nordost, variierte zwischen Nord und Ost/Nordost
Temperatur 27°C
Luftfeuchtigkeit 30%
Luftdruck 1021 hPa
Sichtweite 10 km oder mehr
keine Wolken unter 1500 m und keine Kumulonimbus oder Gewitterwolken

METAR: LFBD 111430Z AUTO 03009KT 360V060 CAVOK 27/08 Q1021 NOSIG

Zeit: 17:09 (15:09 UTC)

Prognose

Neuester Wetterbericht von vor 4 Stunden und 9 Minuten, um 11:00 UTC
Gültige Prognose vom 11 um 12 UTC bis 12 um 18 UTC
Wind 10 kt aus Nordost
Sichtweite 10 km oder mehr
keine Wolken unter 1500 m und keine Kumulonimbus oder Gewitterwolken
Zeitweise
vom 12 um 02 UTC bis 12 um 06 UTC
Wind 2 kt aus unterschiedlichen Richtungen

TAF: LFBD 111100Z 1112/1218 04010KT CAVOK TX31/1216Z TN16/1206Z TEMPO 1202/1206 VRB02KT

Wetterbeobachtungen und Prognosen von mehr als 4000 Flughäfen (METAR und TAF Bericht).

Die verfügbaren Stationen werden durch gelbe und rote Markierungen auf der Karte dargestellt.

Führen Sie die Maus auf sie, um den Namen der Station zu sehen.

Darauf klicken, um die Beobachtung von Wetterbeobachtungen und Prognosen zu sehen.

Um die Karte zu ändern : klicken Sie auf den grünen Tasten mit einem schwarzen Kreuz Zum Vergrößern, auf den grünen Button mit einem Gedankenstrich zu verkleinern, oder auf die grünen Pfeile für benachbarte Karten.


METAR-TAF: